Terminal Aerodrome Forecast
Issued by NWS Greer, SC

Home | Current Version | Previous Version | Text Only | Print | Product List | Glossary On
Versions: 1 2 3 4 5 6 7 8 9 10 11 12 13 14 15 16 17 18 19 20 21
000
FTUS42 KGSP 272341
TAFGSP
TAF
KGSP 272341Z 2800/2824 20006KT P6SM VCSH SCT060 BKN200
     FM280300 19004KT P6SM VCTS BKN060CB
      TEMPO 2804/2807 6SM -TSRA BKN030CB OVC060
     FM280800 21006KT P6SM BKN030
     FM281600 24011KT P6SM SCT050 SCT250=

USA.gov is the U.S. government's official web portal to all federal, state and local government web resources and services.